Time;durP1;ratioP1;P1;durP2;ratioP2;P2;SDS_P1;SDS_P2;PMS_P1;PMS_P2;Temp;Humidity;BMP_temperature;BMP_pressure;BME280_temperature;BME280_humidity;BME280_pressure;Samples;Min_cycle;Max_cycle;Signal;HPM_P1;HPM_P2
2021/12/31 00:00:39;;;;;;;5.63;2.90;;;13.40;99.90;;;;;;5074600;28;20289;-65
2021/12/31 00:03:08;;;;;;;7.83;3.17;;;13.40;99.90;;;;;;5080289;28;20203;-64
2021/12/31 00:05:37;;;;;;;7.00;3.10;;;13.40;99.90;;;;;;5063315;28;20278;-65
2021/12/31 00:08:06;;;;;;;8.13;2.77;;;13.40;99.90;;;;;;5082990;28;20340;-65
2021/12/31 00:10:34;;;;;;;7.90;3.10;;;13.40;99.90;;;;;;5082594;28;20191;-65
2021/12/31 00:13:03;;;;;;;6.43;3.00;;;13.40;99.90;;;;;;5082144;28;20199;-65
2021/12/31 00:15:31;;;;;;;6.23;3.30;;;13.40;99.90;;;;;;5075400;28;20258;-65
2021/12/31 00:17:59;;;;;;;9.50;3.30;;;13.40;99.90;;;;;;5084517;28;20254;-64
2021/12/31 00:20:28;;;;;;;6.87;3.10;;;13.40;99.90;;;;;;5066725;28;20245;-65
2021/12/31 00:23:04;;;;;;;3.43;3.00;;;13.40;99.90;;;;;;5082106;28;20624;-65
2021/12/31 00:25:36;;;;;;;6.20;3.17;;;13.40;99.90;;;;;;5070776;28;20916;-65
2021/12/31 00:28:05;;;;;;;10.23;3.33;;;13.40;99.90;;;;;;5063410;28;20738;-65
2021/12/31 00:30:34;;;;;;;11.07;3.90;;;13.40;99.90;;;;;;5079422;28;20196;-65
2021/12/31 00:33:03;;;;;;;8.83;3.50;;;13.40;99.90;;;;;;5081042;28;20205;-65
2021/12/31 00:35:33;;;;;;;5.90;3.33;;;13.40;99.90;;;;;;5083357;28;20264;-64
2021/12/31 00:38:03;;;;;;;9.57;3.57;;;13.40;99.90;;;;;;5076603;28;20226;-65
2021/12/31 00:40:31;;;;;;;4.77;3.17;;;13.40;99.90;;;;;;5081931;28;20278;-65
2021/12/31 00:43:00;;;;;;;8.03;3.20;;;13.40;99.90;;;;;;5081929;28;20253;-65
2021/12/31 00:45:30;;;;;;;7.77;3.20;;;13.40;99.90;;;;;;5080667;28;20215;-64
2021/12/31 00:47:59;;;;;;;3.60;3.20;;;13.40;99.90;;;;;;5078131;28;20302;-65
2021/12/31 00:50:27;;;;;;;7.37;3.40;;;13.40;99.90;;;;;;5064214;28;20274;-65
2021/12/31 00:52:56;;;;;;;7.50;3.40;;;13.40;99.90;;;;;;5084274;28;20279;-65
2021/12/31 00:55:25;;;;;;;5.27;3.50;;;13.40;99.90;;;;;;5083120;28;20279;-65
2021/12/31 00:57:53;;;;;;;9.10;3.70;;;13.40;99.90;;;;;;5087050;28;20188;-65
2021/12/31 01:00:22;;;;;;;7.33;3.27;;;13.40;99.90;;;;;;5080179;28;20234;-64
2021/12/31 01:03:10;;;;;;;7.73;3.30;;;13.40;99.90;;;;;;5081567;28;20199;-65
2021/12/31 01:05:39;;;;;;;11.47;3.70;;;13.30;99.90;;;;;;5064937;28;20198;-65
2021/12/31 01:08:07;;;;;;;8.07;3.43;;;13.30;99.90;;;;;;5085679;28;20214;-64
2021/12/31 01:10:37;;;;;;;6.93;3.20;;;13.40;99.90;;;;;;5064157;28;20196;-65
2021/12/31 01:13:11;;;;;;;7.27;3.20;;;13.30;99.90;;;;;;5078885;28;20196;-65
2021/12/31 01:15:43;;;;;;;10.23;3.33;;;13.30;99.90;;;;;;5058532;28;20313;-65
2021/12/31 01:18:22;;;;;;;5.60;3.07;;;13.40;99.90;;;;;;5081271;28;20206;-65
2021/12/31 01:20:50;;;;;;;12.10;3.30;;;13.40;99.90;;;;;;5079891;28;20313;-65
2021/12/31 01:23:19;;;;;;;7.63;3.50;;;13.30;99.90;;;;;;5064700;28;20192;-65
2021/12/31 01:25:49;;;;;;;7.23;4.03;;;13.30;99.90;;;;;;5086118;28;20208;-65
2021/12/31 01:28:19;;;;;;;6.90;3.23;;;13.30;99.90;;;;;;5085514;28;20208;-65
2021/12/31 01:30:47;;;;;;;8.37;3.67;;;13.30;99.90;;;;;;5076116;28;20253;-64
2021/12/31 01:33:16;;;;;;;6.03;3.10;;;13.20;99.90;;;;;;5086014;28;20245;-65
2021/12/31 01:35:44;;;;;;;9.10;3.60;;;13.20;99.90;;;;;;5085367;28;20812;-65
2021/12/31 01:38:12;;;;;;;5.83;3.40;;;13.10;99.90;;;;;;5083946;28;20732;-65
2021/12/31 01:40:42;;;;;;;11.93;3.50;;;13.10;99.90;;;;;;5083888;28;20187;-64
2021/12/31 01:43:12;;;;;;;7.93;3.43;;;13.10;99.90;;;;;;5092416;28;20212;-65
2021/12/31 01:45:47;;;;;;;4.90;3.47;;;13.10;99.90;;;;;;5083113;28;20662;-65
2021/12/31 01:48:24;;;;;;;7.60;3.57;;;13.00;99.90;;;;;;5065539;28;20539;-65
2021/12/31 01:50:54;;;;;;;7.93;3.73;;;13.10;99.90;;;;;;5081293;28;20195;-64
2021/12/31 01:53:23;;;;;;;10.53;3.57;;;13.00;99.90;;;;;;5066779;28;20669;-64
2021/12/31 01:55:53;;;;;;;6.33;3.60;;;13.00;99.90;;;;;;5085102;28;20196;-65
2021/12/31 01:58:25;;;;;;;10.13;4.10;;;12.90;99.90;;;;;;5089078;28;20218;-64
2021/12/31 02:00:55;;;;;;;6.80;4.30;;;12.90;99.90;;;;;;5079231;28;20207;-65
2021/12/31 02:03:25;;;;;;;9.10;4.03;;;12.90;99.90;;;;;;5079284;28;20196;-64
2021/12/31 02:05:53;;;;;;;7.10;4.00;;;12.80;99.90;;;;;;5059231;28;20207;-64
2021/12/31 02:08:22;;;;;;;10.23;4.23;;;12.80;99.90;;;;;;5083391;28;20219;-64
2021/12/31 02:10:51;;;;;;;9.57;4.30;;;12.70;99.90;;;;;;5084357;28;20188;-65
2021/12/31 02:13:21;;;;;;;6.57;3.70;;;12.70;99.90;;;;;;5086419;28;20196;-64
2021/12/31 02:15:51;;;;;;;6.30;4.03;;;12.60;99.90;;;;;;5084416;28;20261;-65
2021/12/31 02:18:20;;;;;;;8.37;4.40;;;12.60;99.90;;;;;;5088425;28;20233;-64
2021/12/31 02:20:50;;;;;;;8.80;4.40;;;12.60;99.90;;;;;;5079704;28;20593;-65
2021/12/31 02:23:23;;;;;;;10.13;4.33;;;12.60;99.90;;;;;;5085958;28;20230;-65
2021/12/31 02:25:51;;;;;;;14.17;4.73;;;12.50;99.90;;;;;;5065847;28;20188;-65
2021/12/31 02:28:20;;;;;;;10.03;4.20;;;12.40;99.90;;;;;;5082716;28;20245;-64
2021/12/31 02:30:49;;;;;;;5.90;4.00;;;12.40;99.90;;;;;;5079395;28;20192;-65
2021/12/31 02:33:17;;;;;;;8.77;4.67;;;12.40;99.90;;;;;;5090073;28;20196;-65
2021/12/31 02:35:46;;;;;;;11.10;4.30;;;12.40;99.90;;;;;;5078867;28;20408;-65
2021/12/31 02:38:16;;;;;;;10.93;4.40;;;12.40;99.90;;;;;;5079322;28;20245;-64
2021/12/31 02:40:44;;;;;;;11.00;4.73;;;12.40;99.90;;;;;;5079290;28;20665;-64
2021/12/31 02:43:12;;;;;;;6.53;4.50;;;12.40;99.90;;;;;;5081869;28;20215;-64
2021/12/31 02:45:42;;;;;;;12.00;4.73;;;12.40;99.90;;;;;;5065582;28;20589;-65
2021/12/31 02:48:11;;;;;;;10.73;5.00;;;12.50;99.90;;;;;;5081577;28;20257;-64
2021/12/31 02:50:42;;;;;;;11.83;5.30;;;12.50;99.90;;;;;;5075342;28;20203;-64
2021/12/31 02:53:13;;;;;;;9.93;5.10;;;12.50;99.90;;;;;;5062016;28;20200;-64
2021/12/31 02:55:44;;;;;;;9.20;4.87;;;12.50;99.90;;;;;;5083528;28;20238;-65
2021/12/31 02:58:14;;;;;;;11.80;5.03;;;12.50;99.90;;;;;;5058697;28;20713;-64
2021/12/31 03:00:43;;;;;;;12.00;5.50;;;12.40;99.90;;;;;;5078278;28;20694;-65
2021/12/31 03:03:14;;;;;;;13.97;5.10;;;12.40;99.90;;;;;;5085176;28;20211;-65
2021/12/31 03:05:45;;;;;;;10.33;5.23;;;12.30;99.90;;;;;;5057539;28;20701;-64
2021/12/31 03:08:15;;;;;;;12.10;5.17;;;12.20;99.90;;;;;;5077377;28;20228;-64
2021/12/31 03:10:47;;;;;;;11.73;5.20;;;12.20;99.90;;;;;;5077584;28;20294;-64
2021/12/31 03:13:17;;;;;;;11.37;5.20;;;12.10;99.90;;;;;;5083604;28;20188;-65
2021/12/31 03:15:45;;;;;;;9.87;5.20;;;12.10;99.90;;;;;;5083169;28;20227;-64
2021/12/31 03:18:15;;;;;;;11.07;5.00;;;12.10;99.90;;;;;;5083664;28;20291;-64
2021/12/31 03:20:57;;;;;;;15.20;5.67;;;12.10;99.90;;;;;;5079536;28;20260;-65
2021/12/31 03:23:25;;;;;;;9.87;5.07;;;12.10;99.90;;;;;;5077388;28;20231;-64
2021/12/31 03:25:55;;;;;;;15.47;5.30;;;12.00;99.90;;;;;;5079639;28;20286;-64
2021/12/31 03:28:24;;;;;;;10.23;5.40;;;12.00;99.90;;;;;;5077189;28;20265;-64
2021/12/31 03:30:52;;;;;;;8.13;4.93;;;12.00;99.90;;;;;;5063392;28;20211;-64
2021/12/31 03:33:22;;;;;;;6.97;4.63;;;11.90;99.90;;;;;;5065308;28;20217;-64
2021/12/31 03:35:51;;;;;;;9.83;5.03;;;11.90;99.90;;;;;;5079375;28;20211;-64
2021/12/31 03:38:19;;;;;;;11.13;4.70;;;11.90;99.90;;;;;;5084415;28;20250;-65
2021/12/31 03:40:48;;;;;;;9.90;4.70;;;11.90;99.90;;;;;;5083654;28;20222;-64
2021/12/31 03:43:17;;;;;;;8.27;4.23;;;11.80;99.90;;;;;;5081573;28;20202;-65
2021/12/31 03:45:46;;;;;;;6.07;4.33;;;11.80;99.90;;;;;;5062462;28;20676;-64
2021/12/31 03:48:15;;;;;;;10.17;4.77;;;11.80;99.90;;;;;;5082587;28;20204;-65
2021/12/31 03:50:43;;;;;;;12.07;4.60;;;11.80;99.90;;;;;;5082030;28;20761;-64
2021/12/31 03:53:14;;;;;;;11.50;4.87;;;11.80;99.90;;;;;;5078476;28;20257;-64
2021/12/31 03:55:43;;;;;;;8.20;4.37;;;11.80;99.90;;;;;;5063469;28;20200;-64
2021/12/31 03:58:11;;;;;;;7.57;4.60;;;11.80;99.90;;;;;;5077147;28;20698;-64
2021/12/31 04:00:41;;;;;;;9.33;4.90;;;11.70;99.90;;;;;;5077748;28;20187;-65
2021/12/31 04:03:11;;;;;;;10.17;4.30;;;11.70;99.90;;;;;;5083171;28;20202;-64
2021/12/31 04:05:42;;;;;;;14.20;4.67;;;11.80;99.90;;;;;;5082429;28;20192;-64
2021/12/31 04:08:11;;;;;;;8.97;4.90;;;11.80;99.90;;;;;;5062055;28;20200;-64
2021/12/31 04:10:39;;;;;;;10.43;4.73;;;11.70;99.90;;;;;;5077859;28;20323;-64
2021/12/31 04:13:07;;;;;;;7.33;3.97;;;11.70;99.90;;;;;;5063911;28;20291;-64
2021/12/31 04:15:36;;;;;;;8.77;4.63;;;11.70;99.90;;;;;;5081192;28;20247;-64
2021/12/31 04:18:06;;;;;;;12.97;4.83;;;11.60;99.90;;;;;;5065910;28;20227;-64
2021/12/31 04:20:42;;;;;;;11.73;4.93;;;11.60;99.90;;;;;;5085862;28;20195;-65
2021/12/31 04:23:14;;;;;;;9.27;4.63;;;11.50;99.90;;;;;;5063891;28;20246;-64
2021/12/31 04:25:43;;;;;;;11.67;5.10;;;11.50;99.90;;;;;;5077796;28;20211;-64
2021/12/31 04:28:11;;;;;;;9.73;4.93;;;11.50;99.90;;;;;;5074052;28;20650;-65
2021/12/31 04:30:39;;;;;;;10.07;5.20;;;11.50;99.90;;;;;;5075175;28;20585;-64
2021/12/31 04:33:09;;;;;;;10.40;5.47;;;11.50;99.90;;;;;;5058415;28;20194;-64
2021/12/31 04:35:37;;;;;;;8.17;4.53;;;11.50;99.90;;;;;;5079721;28;20719;-65
2021/12/31 04:38:06;;;;;;;12.77;4.90;;;11.50;99.90;;;;;;5064698;28;20204;-64
2021/12/31 04:40:34;;;;;;;6.90;4.57;;;11.50;99.90;;;;;;5061574;28;20196;-64
2021/12/31 04:43:03;;;;;;;13.47;4.90;;;11.50;99.90;;;;;;5078542;28;20632;-64
2021/12/31 04:45:31;;;;;;;10.77;4.70;;;11.50;99.90;;;;;;5080448;28;20519;-64
2021/12/31 04:47:59;;;;;;;10.73;4.70;;;11.50;99.90;;;;;;5081035;28;20200;-64
2021/12/31 04:50:29;;;;;;;14.90;4.87;;;11.40;99.90;;;;;;5075994;28;20260;-64
2021/12/31 04:52:57;;;;;;;10.13;4.90;;;11.50;99.90;;;;;;5062285;28;20257;-65
2021/12/31 04:55:26;;;;;;;7.03;4.50;;;11.50;99.90;;;;;;5074530;28;20230;-64
2021/12/31 04:57:55;;;;;;;8.57;3.87;;;11.50;99.90;;;;;;5081244;28;20666;-65
2021/12/31 05:00:23;;;;;;;11.97;4.43;;;11.50;99.90;;;;;;5086150;28;20269;-64
2021/12/31 05:02:51;;;;;;;8.93;3.80;;;11.60;99.90;;;;;;5081058;28;20195;-65
2021/12/31 05:05:20;;;;;;;9.70;4.20;;;11.60;99.90;;;;;;5086949;28;20206;-64
2021/12/31 05:07:50;;;;;;;8.83;4.13;;;11.60;99.90;;;;;;5079103;28;20242;-64
2021/12/31 05:10:18;;;;;;;8.10;4.10;;;11.50;99.90;;;;;;5075337;28;20216;-64
2021/12/31 05:12:52;;;;;;;5.20;3.90;;;11.50;99.90;;;;;;5088385;28;20596;-64
2021/12/31 05:15:26;;;;;;;7.87;3.87;;;11.50;99.90;;;;;;5076425;28;20219;-64
2021/12/31 05:17:55;;;;;;;4.13;3.47;;;11.50;99.90;;;;;;5079223;28;20196;-64
2021/12/31 05:20:24;;;;;;;6.87;3.43;;;11.50;99.90;;;;;;5076799;28;20253;-64
2021/12/31 05:23:00;;;;;;;7.33;3.20;;;11.50;99.90;;;;;;5088148;28;20203;-64
2021/12/31 05:25:29;;;;;;;5.67;3.43;;;11.50;99.90;;;;;;5081001;28;20690;-64
2021/12/31 05:27:58;;;;;;;6.93;3.50;;;11.50;99.90;;;;;;5084623;28;20220;-65
2021/12/31 05:30:26;;;;;;;5.20;3.47;;;11.50;99.90;;;;;;5080999;28;20294;-64
2021/12/31 05:32:55;;;;;;;3.70;2.87;;;11.50;99.90;;;;;;5066852;28;20286;-64
2021/12/31 05:35:24;;;;;;;5.43;3.23;;;11.60;99.90;;;;;;5080025;28;20203;-63
2021/12/31 05:37:54;;;;;;;5.10;3.03;;;11.60;99.90;;;;;;5079510;28;20765;-64
2021/12/31 05:40:22;;;;;;;3.30;2.90;;;11.60;99.90;;;;;;5081748;28;20204;-64
2021/12/31 05:42:51;;;;;;;4.90;3.60;;;11.60;99.90;;;;;;5081300;28;20257;-64
2021/12/31 05:45:20;;;;;;;3.40;2.93;;;11.70;99.90;;;;;;5082498;28;20255;-64
2021/12/31 05:47:56;;;;;;;3.70;2.87;;;11.60;99.90;;;;;;5086221;28;20727;-64
2021/12/31 05:50:32;;;;;;;4.23;2.93;;;11.70;99.90;;;;;;5087789;28;20207;-64
2021/12/31 05:53:02;;;;;;;4.63;2.70;;;11.70;99.90;;;;;;5084025;28;20207;-64
2021/12/31 05:55:31;;;;;;;3.90;2.97;;;11.70;99.90;;;;;;5085292;28;20249;-64
2021/12/31 05:58:01;;;;;;;4.73;2.87;;;11.70;99.90;;;;;;5086981;28;20206;-64
2021/12/31 06:00:30;;;;;;;4.33;2.90;;;11.70;99.90;;;;;;5063436;28;20882;-64
2021/12/31 06:03:10;;;;;;;5.50;3.20;;;11.70;99.90;;;;;;5079544;28;20199;-64
2021/12/31 06:05:38;;;;;;;4.93;2.90;;;11.70;99.90;;;;;;5061606;28;20610;-64
2021/12/31 06:08:08;;;;;;;6.57;3.03;;;11.70;99.90;;;;;;5083371;28;20241;-64
2021/12/31 06:10:41;;;;;;;3.53;2.80;;;11.70;99.90;;;;;;5083421;28;20298;-64
2021/12/31 06:13:12;;;;;;;4.30;3.37;;;11.70;99.90;;;;;;5088044;28;20195;-64
2021/12/31 06:15:42;;;;;;;8.60;3.43;;;11.70;99.90;;;;;;5080883;28;20238;-64
2021/12/31 06:18:11;;;;;;;3.97;3.23;;;11.70;99.90;;;;;;5086630;28;20652;-64
2021/12/31 06:20:42;;;;;;;7.03;3.03;;;11.60;99.90;;;;;;5084845;28;20192;-64
2021/12/31 06:23:11;;;;;;;6.67;3.23;;;11.60;99.90;;;;;;5066119;28;20644;-64
2021/12/31 06:25:40;;;;;;;4.67;3.10;;;11.60;99.90;;;;;;5061968;28;20199;-64
2021/12/31 06:28:08;;;;;;;4.53;3.20;;;11.60;99.90;;;;;;5084831;28;20659;-64
2021/12/31 06:30:36;;;;;;;4.03;3.27;;;11.50;99.90;;;;;;5075333;28;20227;-64
2021/12/31 06:33:05;;;;;;;5.20;3.03;;;11.50;99.90;;;;;;5062629;28;20210;-64
2021/12/31 06:35:34;;;;;;;4.50;3.00;;;11.40;99.90;;;;;;5082558;28;20622;-64
2021/12/31 06:38:03;;;;;;;4.33;2.93;;;11.40;99.90;;;;;;5062755;28;20279;-64
2021/12/31 06:40:35;;;;;;;4.97;3.03;;;11.30;99.90;;;;;;5067709;28;20227;-64
2021/12/31 06:43:04;;;;;;;7.03;3.70;;;11.30;99.90;;;;;;5076990;28;20203;-64
2021/12/31 06:45:32;;;;;;;7.50;3.33;;;11.30;99.90;;;;;;5077365;28;20621;-64
2021/12/31 06:48:01;;;;;;;7.40;3.30;;;11.30;99.90;;;;;;5065388;28;20219;-65
2021/12/31 06:50:30;;;;;;;4.77;3.17;;;11.20;99.90;;;;;;5084696;28;20195;-64
2021/12/31 06:53:01;;;;;;;6.07;3.20;;;11.20;99.90;;;;;;5082587;28;20249;-64
2021/12/31 06:55:30;;;;;;;5.43;3.47;;;11.20;99.90;;;;;;5082322;28;20242;-64
2021/12/31 06:58:00;;;;;;;7.13;3.50;;;11.20;99.90;;;;;;5079781;28;20860;-64
2021/12/31 07:00:28;;;;;;;4.97;3.70;;;11.20;99.90;;;;;;5073882;28;20250;-64
2021/12/31 07:03:07;;;;;;;5.10;3.40;;;11.20;99.90;;;;;;5065007;28;20183;-64
2021/12/31 07:05:35;;;;;;;5.97;3.60;;;11.20;99.90;;;;;;5080140;28;20205;-64
2021/12/31 07:08:04;;;;;;;6.27;3.30;;;11.30;99.90;;;;;;5069164;28;20191;-64
2021/12/31 07:10:33;;;;;;;4.43;3.83;;;11.30;99.90;;;;;;5081431;28;20524;-64
2021/12/31 07:13:10;;;;;;;9.80;3.87;;;11.30;99.90;;;;;;5065203;28;20915;-64
2021/12/31 07:15:40;;;;;;;4.43;3.40;;;11.30;99.90;;;;;;5078140;28;20380;-64
2021/12/31 07:18:09;;;;;;;4.53;3.77;;;11.20;99.90;;;;;;5084379;28;21163;-64
2021/12/31 07:20:38;;;;;;;4.47;3.10;;;11.20;99.90;;;;;;5080860;28;20191;-64
2021/12/31 07:23:07;;;;;;;3.53;3.23;;;11.10;99.90;;;;;;5082055;28;20200;-64
2021/12/31 07:25:38;;;;;;;3.47;3.13;;;11.10;99.90;;;;;;5080862;28;20235;-64
2021/12/31 07:28:08;;;;;;;3.83;3.53;;;11.00;99.90;;;;;;5084076;28;20221;-64
2021/12/31 07:30:37;;;;;;;4.37;3.57;;;11.00;99.90;;;;;;5071593;28;20246;-64
2021/12/31 07:33:06;;;;;;;7.30;3.80;;;11.00;99.90;;;;;;5068857;28;20261;-64
2021/12/31 07:35:34;;;;;;;6.67;3.40;;;11.00;99.90;;;;;;5077793;28;20184;-64
2021/12/31 07:38:03;;;;;;;3.97;3.40;;;11.10;99.90;;;;;;5080003;28;20192;-64
2021/12/31 07:40:39;;;;;;;5.23;3.30;;;11.10;99.90;;;;;;5065006;28;20254;-65
2021/12/31 07:43:10;;;;;;;3.50;3.00;;;11.10;99.90;;;;;;5080888;28;20666;-64
2021/12/31 07:45:39;;;;;;;4.93;3.30;;;11.10;99.90;;;;;;5063127;28;20191;-64
2021/12/31 07:48:07;;;;;;;4.73;3.47;;;11.20;99.90;;;;;;5082888;28;20202;-64
2021/12/31 07:50:37;;;;;;;3.40;3.13;;;11.20;99.90;;;;;;5062557;28;20248;-64
2021/12/31 07:53:05;;;;;;;3.93;3.13;;;11.30;99.90;;;;;;5060883;28;20285;-64
2021/12/31 07:55:35;;;;;;;4.93;3.50;;;11.30;99.90;;;;;;5078528;28;20601;-64
2021/12/31 07:58:05;;;;;;;6.30;3.00;;;11.30;99.90;;;;;;5083223;28;20246;-65
2021/12/31 08:00:35;;;;;;;4.13;3.10;;;11.30;99.90;;;;;;5066510;28;20646;-64
2021/12/31 08:03:04;;;;;;;5.50;3.10;;;11.40;99.90;;;;;;5088478;28;20200;-64
2021/12/31 08:05:34;;;;;;;4.23;3.20;;;11.40;99.90;;;;;;5061204;28;20563;-64
2021/12/31 08:08:04;;;;;;;3.50;2.80;;;11.40;99.90;;;;;;5088495;28;20952;-64
2021/12/31 08:10:33;;;;;;;3.80;3.00;;;11.50;99.90;;;;;;5083203;28;20183;-64
2021/12/31 08:13:22;;;;;;;3.27;2.97;;;11.50;99.90;;;;;;5077820;28;20219;-63
2021/12/31 08:15:53;;;;;;;3.47;3.07;;;11.50;99.90;;;;;;5080868;28;20725;-64
2021/12/31 08:18:22;;;;;;;4.07;2.77;;;11.50;99.90;;;;;;5075216;28;20565;-64
2021/12/31 08:20:50;;;;;;;5.20;3.00;;;11.50;99.90;;;;;;5060656;28;20191;-64
2021/12/31 08:23:19;;;;;;;2.97;2.77;;;11.60;99.90;;;;;;5076190;28;20190;-64
2021/12/31 08:25:48;;;;;;;3.13;2.83;;;11.60;99.90;;;;;;5079633;28;20671;-64
2021/12/31 08:28:16;;;;;;;2.67;2.50;;;11.60;99.90;;;;;;5085040;28;20196;-64
2021/12/31 08:30:44;;;;;;;3.13;2.77;;;11.60;99.90;;;;;;5063010;28;20195;-63
2021/12/31 08:33:14;;;;;;;3.00;2.50;;;11.70;99.90;;;;;;5066828;28;20207;-65
2021/12/31 08:35:42;;;;;;;2.63;2.50;;;11.70;99.90;;;;;;5084725;28;20257;-64
2021/12/31 08:38:11;;;;;;;4.43;2.53;;;11.70;99.90;;;;;;5090816;28;20191;-64
2021/12/31 08:40:39;;;;;;;5.00;2.97;;;11.70;99.90;;;;;;5078585;28;20231;-64
2021/12/31 08:43:08;;;;;;;5.17;2.93;;;11.80;99.90;;;;;;5080702;28;20222;-65
2021/12/31 08:45:36;;;;;;;2.80;2.70;;;11.80;99.90;;;;;;5079926;28;20191;-64
2021/12/31 08:48:05;;;;;;;3.20;2.67;;;11.80;99.90;;;;;;5077342;28;20220;-64
2021/12/31 08:50:35;;;;;;;3.70;2.93;;;11.80;99.90;;;;;;5065484;28;20269;-64
2021/12/31 08:53:05;;;;;;;5.80;3.00;;;11.80;99.90;;;;;;5088541;28;20265;-64
2021/12/31 08:55:33;;;;;;;7.07;3.23;;;11.80;99.90;;;;;;5064858;28;20191;-64
2021/12/31 08:58:02;;;;;;;2.87;2.67;;;11.80;99.90;;;;;;5086431;28;20199;-64
2021/12/31 09:00:30;;;;;;;3.47;2.57;;;11.70;99.90;;;;;;5060569;28;20556;-64
2021/12/31 09:02:58;;;;;;;3.07;2.70;;;11.80;99.90;;;;;;5085027;28;20214;-64
2021/12/31 09:05:27;;;;;;;3.27;2.97;;;11.80;99.90;;;;;;5062763;28;20218;-65
2021/12/31 09:07:57;;;;;;;4.57;2.80;;;11.90;99.90;;;;;;5081731;28;20198;-64
2021/12/31 09:10:26;;;;;;;2.97;2.67;;;11.80;99.90;;;;;;5081968;28;20229;-64
2021/12/31 09:12:54;;;;;;;5.07;3.07;;;11.80;99.90;;;;;;5068830;28;20206;-64
2021/12/31 09:15:23;;;;;;;3.07;2.60;;;11.80;99.90;;;;;;5079986;28;20230;-63
2021/12/31 09:17:51;;;;;;;3.40;3.10;;;11.90;99.90;;;;;;5076955;28;20599;-65
2021/12/31 09:20:20;;;;;;;6.90;3.10;;;11.90;99.90;;;;;;5081549;28;20200;-64
2021/12/31 09:22:48;;;;;;;3.40;3.00;;;11.90;99.90;;;;;;5063327;28;20191;-64
2021/12/31 09:25:18;;;;;;;4.00;3.20;;;11.90;99.90;;;;;;5086933;28;20246;-64
2021/12/31 09:27:46;;;;;;;3.43;2.80;;;11.80;99.90;;;;;;5074998;28;20481;-64
2021/12/31 09:30:14;;;;;;;7.00;2.80;;;11.80;99.90;;;;;;5089517;28;20213;-65
2021/12/31 09:32:43;;;;;;;4.33;3.00;;;11.90;99.90;;;;;;5076827;28;20236;-64
2021/12/31 09:35:12;;;;;;;3.90;2.87;;;11.90;99.90;;;;;;5081523;28;20551;-64
2021/12/31 09:37:40;;;;;;;3.73;2.80;;;11.90;99.90;;;;;;5083122;28;20234;-64
2021/12/31 09:40:11;;;;;;;3.03;2.83;;;11.80;99.90;;;;;;5093054;28;20276;-64
2021/12/31 09:42:46;;;;;;;3.47;3.07;;;11.80;99.90;;;;;;5076988;28;20191;-64
2021/12/31 09:45:16;;;;;;;5.13;3.27;;;11.80;99.90;;;;;;5061151;28;20219;-64
2021/12/31 09:47:45;;;;;;;6.13;3.27;;;11.80;99.90;;;;;;5080808;28;20806;-65
2021/12/31 09:50:13;;;;;;;3.37;3.00;;;11.80;99.90;;;;;;5085837;28;20680;-65
2021/12/31 09:52:44;;;;;;;3.73;3.40;;;11.80;99.90;;;;;;5060723;28;20694;-65
2021/12/31 09:55:13;;;;;;;5.20;2.67;;;11.90;99.90;;;;;;5088411;28;20253;-64
2021/12/31 09:57:42;;;;;;;4.83;3.00;;;11.90;99.90;;;;;;5057121;28;20203;-64
2021/12/31 10:00:12;;;;;;;6.03;3.17;;;11.90;99.90;;;;;;5084089;28;20212;-65
2021/12/31 10:02:42;;;;;;;5.73;3.40;;;12.10;99.90;;;;;;5083933;28;20199;-65
2021/12/31 10:05:11;;;;;;;3.60;3.20;;;12.10;99.90;;;;;;5082427;28;20195;-64
2021/12/31 10:07:43;;;;;;;4.20;3.43;;;12.20;99.90;;;;;;5083020;28;20199;-64
2021/12/31 10:10:16;;;;;;;3.80;3.23;;;12.20;99.90;;;;;;5059804;28;20199;-64
2021/12/31 10:12:48;;;;;;;7.07;3.20;;;12.20;99.90;;;;;;5069064;28;20210;-65
2021/12/31 10:15:18;;;;;;;3.77;3.03;;;12.40;99.90;;;;;;5065311;28;20277;-65
2021/12/31 10:17:47;;;;;;;3.20;2.93;;;12.60;99.90;;;;;;5055665;28;20636;-64
2021/12/31 10:20:17;;;;;;;3.80;2.87;;;12.80;99.90;;;;;;5077757;28;20219;-64
2021/12/31 10:22:46;;;;;;;4.57;2.80;;;12.80;99.90;;;;;;5083525;28;20218;-65
2021/12/31 10:25:20;;;;;;;3.30;3.10;;;12.80;99.90;;;;;;5084472;28;20240;-65
2021/12/31 10:27:52;;;;;;;3.13;2.93;;;12.90;99.90;;;;;;5076141;28;20199;-65
2021/12/31 10:30:26;;;;;;;5.23;3.07;;;12.80;99.90;;;;;;5077696;28;20200;-64
2021/12/31 10:32:55;;;;;;;4.23;3.10;;;12.80;99.90;;;;;;5078781;28;20212;-64
2021/12/31 10:35:23;;;;;;;3.73;3.13;;;12.70;99.90;;;;;;5081802;28;20256;-64
2021/12/31 10:37:57;;;;;;;3.30;2.90;;;12.80;99.90;;;;;;5077051;28;20214;-65
2021/12/31 10:40:28;;;;;;;3.43;3.23;;;12.80;99.90;;;;;;5079406;28;20210;-64
2021/12/31 10:43:12;;;;;;;3.13;2.83;;;12.70;99.90;;;;;;5083516;28;20192;-65
2021/12/31 10:45:54;;;;;;;4.50;3.50;;;12.70;99.90;;;;;;5075217;28;20276;-65
2021/12/31 10:48:37;;;;;;;7.03;3.37;;;12.70;99.90;;;;;;5077330;28;20254;-64
2021/12/31 10:51:08;;;;;;;4.03;2.80;;;12.80;99.90;;;;;;5075616;28;20203;-64
2021/12/31 10:53:37;;;;;;;3.20;3.00;;;12.90;99.90;;;;;;5077546;28;20276;-65
2021/12/31 10:56:08;;;;;;;3.57;3.27;;;13.00;99.90;;;;;;5082688;28;20309;-64
2021/12/31 10:58:40;;;;;;;6.47;2.87;;;13.00;99.90;;;;;;5080370;28;20192;-64
2021/12/31 11:01:12;;;;;;;4.97;3.20;;;13.00;99.90;;;;;;5087215;28;21148;-64
2021/12/31 11:03:42;;;;;;;3.30;3.07;;;13.10;99.90;;;;;;5082088;28;20219;-65
2021/12/31 11:06:13;;;;;;;3.20;3.00;;;13.10;99.90;;;;;;5087328;28;20195;-65
2021/12/31 11:08:45;;;;;;;6.03;3.20;;;13.10;99.90;;;;;;5082546;28;21378;-65
2021/12/31 11:11:15;;;;;;;2.80;2.67;;;13.20;99.90;;;;;;5084143;28;20724;-65
2021/12/31 11:13:46;;;;;;;2.70;2.60;;;13.20;99.90;;;;;;5084655;28;20211;-65
2021/12/31 11:16:15;;;;;;;4.10;3.27;;;13.20;99.90;;;;;;5088681;28;20230;-65
2021/12/31 11:18:45;;;;;;;7.03;3.50;;;13.20;99.90;;;;;;5075207;28;20273;-65
2021/12/31 11:21:14;;;;;;;4.30;3.27;;;13.20;99.90;;;;;;5084590;28;20671;-65
2021/12/31 11:23:43;;;;;;;3.60;3.30;;;13.20;99.90;;;;;;5077860;28;20199;-65
2021/12/31 11:26:13;;;;;;;4.03;3.20;;;13.20;99.90;;;;;;5085667;28;20230;-65
2021/12/31 11:28:43;;;;;;;2.63;2.43;;;13.30;99.90;;;;;;5087433;28;20288;-65
2021/12/31 11:31:29;;;;;;;3.73;2.70;;;13.50;99.90;;;;;;5084957;28;20771;-65
2021/12/31 11:34:17;;;;;;;2.87;2.67;;;13.80;99.90;;;;;;5076577;28;20280;-65
2021/12/31 11:36:51;;;;;;;3.77;2.87;;;14.20;99.90;;;;;;5078853;28;20212;-65
2021/12/31 11:39:25;;;;;;;4.37;2.50;;;14.40;99.90;;;;;;5073403;28;20179;-65
2021/12/31 11:41:56;;;;;;;6.43;2.50;;;14.50;99.90;;;;;;5078394;28;20200;-65
2021/12/31 11:44:25;;;;;;;5.80;2.87;;;14.40;99.90;;;;;;5089186;28;20801;-63
2021/12/31 11:47:28;;;;;;;2.70;2.50;;;14.30;99.90;;;;;;5078981;28;20673;-65
2021/12/31 11:50:25;;;;;;;6.17;3.10;;;14.20;99.90;;;;;;5015236;28;20202;-64
2021/12/31 11:53:01;;;;;;;4.77;3.00;;;14.20;99.90;;;;;;5069696;28;20599;-65
2021/12/31 11:55:43;;;;;;;3.10;2.77;;;14.20;99.90;;;;;;5076461;28;20608;-65
2021/12/31 11:58:36;;;;;;;3.90;3.53;;;14.40;99.90;;;;;;5084920;28;20210;-65
2021/12/31 12:01:37;;;;;;;3.43;3.17;;;14.50;99.90;;;;;;5077182;28;20203;-65
2021/12/31 12:04:20;;;;;;;4.10;2.77;;;14.60;99.90;;;;;;5075959;28;20645;-65
2021/12/31 12:06:53;;;;;;;4.67;2.90;;;14.50;99.90;;;;;;5075829;28;20215;-65
2021/12/31 12:09:23;;;;;;;3.53;3.30;;;14.50;99.90;;;;;;5055212;28;20269;-64
2021/12/31 12:12:04;;;;;;;3.40;3.10;;;14.50;99.90;;;;;;5083431;28;20199;-65
2021/12/31 12:14:40;;;;;;;4.43;3.27;;;14.50;99.90;;;;;;5080170;28;20701;-65
2021/12/31 12:17:10;;;;;;;3.70;3.23;;;14.50;99.90;;;;;;5080227;28;20659;-65
2021/12/31 12:20:08;;;;;;;3.30;3.00;;;14.60;99.90;;;;;;5086390;28;20912;-65
2021/12/31 12:22:38;;;;;;;4.10;3.20;;;14.70;99.90;;;;;;5074252;28;20227;-65
2021/12/31 12:25:09;;;;;;;3.40;2.90;;;14.90;99.90;;;;;;5076272;28;20719;-65
2021/12/31 12:27:39;;;;;;;8.40;3.40;;;14.90;99.90;;;;;;5077231;28;20200;-66
2021/12/31 12:30:11;;;;;;;3.17;2.90;;;15.00;99.90;;;;;;5077910;28;20199;-65
2021/12/31 12:32:52;;;;;;;4.63;2.90;;;14.90;99.90;;;;;;5084451;28;20198;-65
2021/12/31 12:35:25;;;;;;;5.57;2.83;;;14.90;99.90;;;;;;5080974;28;20248;-65
2021/12/31 12:37:57;;;;;;;2.80;2.40;;;15.10;99.90;;;;;;5082088;28;20674;-65
2021/12/31 12:40:36;;;;;;;3.30;2.90;;;15.30;99.90;;;;;;5072471;28;20313;-65
2021/12/31 12:43:07;;;;;;;3.17;2.60;;;15.30;99.90;;;;;;5078508;28;20201;-65
2021/12/31 12:45:39;;;;;;;4.07;2.70;;;15.20;99.90;;;;;;5080225;28;20211;-65
2021/12/31 12:48:08;;;;;;;4.73;3.03;;;15.10;99.90;;;;;;5076693;28;20608;-65
2021/12/31 12:50:39;;;;;;;2.60;2.50;;;15.00;99.90;;;;;;5081161;28;20538;-65
2021/12/31 12:53:07;;;;;;;5.20;3.10;;;15.00;99.90;;;;;;5081588;28;20223;-65
2021/12/31 12:55:35;;;;;;;2.83;2.60;;;15.10;99.90;;;;;;5099958;28;20273;-65
2021/12/31 12:58:04;;;;;;;7.10;3.13;;;15.20;99.90;;;;;;5084938;28;20210;-65
2021/12/31 13:00:38;;;;;;;3.30;2.60;;;15.30;99.90;;;;;;5080288;28;20300;-65
2021/12/31 13:03:08;;;;;;;45.80;24.83;;;15.20;99.90;;;;;;5076252;28;20206;-66